sensor_id;sensor_type;location;lat;lon;timestamp;P1;durP1;ratioP1;P2;durP2;ratioP2
57443;SDS011;43289;52.962;6.196;2024-01-30T00:02:10;20.85;;;16.63;;
57443;SDS011;43289;52.962;6.196;2024-01-30T00:04:36;28.63;;;17.02;;
57443;SDS011;43289;52.962;6.196;2024-01-30T00:07:02;21.50;;;16.08;;
57443;SDS011;43289;52.962;6.196;2024-01-30T00:09:28;23.88;;;16.42;;
57443;SDS011;43289;52.962;6.196;2024-01-30T00:11:54;21.63;;;15.82;;
57443;SDS011;43289;52.962;6.196;2024-01-30T00:14:20;22.38;;;15.32;;
57443;SDS011;43289;52.962;6.196;2024-01-30T00:16:46;19.15;;;15.52;;
57443;SDS011;43289;52.962;6.196;2024-01-30T00:19:13;22.85;;;15.98;;
57443;SDS011;43289;52.962;6.196;2024-01-30T00:21:39;20.88;;;16.35;;
57443;SDS011;43289;52.962;6.196;2024-01-30T00:24:05;22.05;;;15.57;;
57443;SDS011;43289;52.962;6.196;2024-01-30T00:26:31;21.10;;;16.08;;
57443;SDS011;43289;52.962;6.196;2024-01-30T00:28:57;20.33;;;14.98;;
57443;SDS011;43289;52.962;6.196;2024-01-30T00:31:24;21.38;;;16.75;;
57443;SDS011;43289;52.962;6.196;2024-01-30T00:33:50;22.30;;;16.75;;
57443;SDS011;43289;52.962;6.196;2024-01-30T00:36:16;20.65;;;16.25;;
57443;SDS011;43289;52.962;6.196;2024-01-30T00:38:42;23.67;;;15.30;;
57443;SDS011;43289;52.962;6.196;2024-01-30T00:41:08;23.10;;;15.73;;
57443;SDS011;43289;52.962;6.196;2024-01-30T00:43:34;20.98;;;15.80;;
57443;SDS011;43289;52.962;6.196;2024-01-30T00:46:02;22.15;;;16.58;;
57443;SDS011;43289;52.962;6.196;2024-01-30T00:48:28;24.58;;;16.40;;
57443;SDS011;43289;52.962;6.196;2024-01-30T00:50:54;22.23;;;15.85;;
57443;SDS011;43289;52.962;6.196;2024-01-30T00:53:20;19.90;;;15.50;;
57443;SDS011;43289;52.962;6.196;2024-01-30T00:55:46;19.83;;;14.93;;
57443;SDS011;43289;52.962;6.196;2024-01-30T00:58:13;22.27;;;15.75;;
57443;SDS011;43289;52.962;6.196;2024-01-30T01:00:41;24.45;;;16.83;;
57443;SDS011;43289;52.962;6.196;2024-01-30T01:03:07;23.10;;;16.35;;
57443;SDS011;43289;52.962;6.196;2024-01-30T01:05:33;22.02;;;15.82;;
57443;SDS011;43289;52.962;6.196;2024-01-30T01:08:00;24.42;;;16.88;;
57443;SDS011;43289;52.962;6.196;2024-01-30T01:10:26;23.30;;;17.00;;
57443;SDS011;43289;52.962;6.196;2024-01-30T01:12:53;23.58;;;15.80;;
57443;SDS011;43289;52.962;6.196;2024-01-30T01:15:19;22.23;;;16.48;;
57443;SDS011;43289;52.962;6.196;2024-01-30T01:17:45;23.35;;;16.15;;
57443;SDS011;43289;52.962;6.196;2024-01-30T01:20:11;24.85;;;16.67;;
57443;SDS011;43289;52.962;6.196;2024-01-30T01:22:37;21.52;;;16.17;;
57443;SDS011;43289;52.962;6.196;2024-01-30T01:25:04;23.42;;;17.33;;
57443;SDS011;43289;52.962;6.196;2024-01-30T01:27:33;21.15;;;17.20;;
57443;SDS011;43289;52.962;6.196;2024-01-30T01:29:59;25.08;;;16.48;;
57443;SDS011;43289;52.962;6.196;2024-01-30T01:32:25;22.27;;;15.98;;
57443;SDS011;43289;52.962;6.196;2024-01-30T01:34:51;21.20;;;16.38;;
57443;SDS011;43289;52.962;6.196;2024-01-30T01:37:18;23.75;;;17.02;;
57443;SDS011;43289;52.962;6.196;2024-01-30T01:39:46;24.77;;;17.38;;
57443;SDS011;43289;52.962;6.196;2024-01-30T01:42:12;24.15;;;17.70;;
57443;SDS011;43289;52.962;6.196;2024-01-30T01:44:38;24.83;;;17.70;;
57443;SDS011;43289;52.962;6.196;2024-01-30T01:47:04;23.45;;;16.80;;
57443;SDS011;43289;52.962;6.196;2024-01-30T01:49:30;24.35;;;17.38;;
57443;SDS011;43289;52.962;6.196;2024-01-30T01:51:57;23.90;;;17.33;;
57443;SDS011;43289;52.962;6.196;2024-01-30T01:54:24;27.30;;;20.15;;
57443;SDS011;43289;52.962;6.196;2024-01-30T01:56:51;24.30;;;17.55;;
57443;SDS011;43289;52.962;6.196;2024-01-30T01:59:19;27.90;;;19.27;;
57443;SDS011;43289;52.962;6.196;2024-01-30T02:01:46;26.40;;;18.33;;
57443;SDS011;43289;52.962;6.196;2024-01-30T02:04:14;25.92;;;18.73;;
57443;SDS011;43289;52.962;6.196;2024-01-30T02:06:40;24.42;;;18.30;;
57443;SDS011;43289;52.962;6.196;2024-01-30T02:09:06;24.75;;;18.83;;
57443;SDS011;43289;52.962;6.196;2024-01-30T02:11:34;25.55;;;19.02;;
57443;SDS011;43289;52.962;6.196;2024-01-30T02:14:03;24.10;;;18.88;;
57443;SDS011;43289;52.962;6.196;2024-01-30T02:16:29;24.55;;;19.00;;
57443;SDS011;43289;52.962;6.196;2024-01-30T02:18:55;28.17;;;19.67;;
57443;SDS011;43289;52.962;6.196;2024-01-30T02:21:21;26.27;;;19.15;;
57443;SDS011;43289;52.962;6.196;2024-01-30T02:23:47;32.42;;;21.60;;
57443;SDS011;43289;52.962;6.196;2024-01-30T02:26:14;26.75;;;18.95;;
57443;SDS011;43289;52.962;6.196;2024-01-30T02:28:41;25.17;;;19.65;;
57443;SDS011;43289;52.962;6.196;2024-01-30T02:31:08;27.92;;;20.40;;
57443;SDS011;43289;52.962;6.196;2024-01-30T02:33:35;24.85;;;19.10;;
57443;SDS011;43289;52.962;6.196;2024-01-30T02:36:01;28.33;;;18.80;;
57443;SDS011;43289;52.962;6.196;2024-01-30T02:38:27;26.05;;;18.77;;
57443;SDS011;43289;52.962;6.196;2024-01-30T02:40:54;28.30;;;19.92;;
57443;SDS011;43289;52.962;6.196;2024-01-30T02:43:21;29.80;;;19.40;;
57443;SDS011;43289;52.962;6.196;2024-01-30T02:45:47;26.55;;;20.38;;
57443;SDS011;43289;52.962;6.196;2024-01-30T02:48:13;28.45;;;19.35;;
57443;SDS011;43289;52.962;6.196;2024-01-30T02:50:39;27.00;;;18.77;;
57443;SDS011;43289;52.962;6.196;2024-01-30T02:53:05;27.27;;;19.33;;
57443;SDS011;43289;52.962;6.196;2024-01-30T02:55:31;26.67;;;18.90;;
57443;SDS011;43289;52.962;6.196;2024-01-30T02:57:57;24.58;;;18.60;;
57443;SDS011;43289;52.962;6.196;2024-01-30T03:00:24;24.60;;;19.60;;
57443;SDS011;43289;52.962;6.196;2024-01-30T03:02:50;27.48;;;18.27;;
57443;SDS011;43289;52.962;6.196;2024-01-30T03:05:16;27.58;;;19.65;;
57443;SDS011;43289;52.962;6.196;2024-01-30T03:07:43;28.83;;;20.27;;
57443;SDS011;43289;52.962;6.196;2024-01-30T03:10:09;27.35;;;19.77;;
57443;SDS011;43289;52.962;6.196;2024-01-30T03:12:35;27.55;;;19.02;;
57443;SDS011;43289;52.962;6.196;2024-01-30T03:15:01;27.23;;;18.77;;
57443;SDS011;43289;52.962;6.196;2024-01-30T03:17:27;25.30;;;19.48;;
57443;SDS011;43289;52.962;6.196;2024-01-30T03:19:53;27.50;;;19.45;;
57443;SDS011;43289;52.962;6.196;2024-01-30T03:22:19;28.95;;;20.67;;
57443;SDS011;43289;52.962;6.196;2024-01-30T03:24:45;28.52;;;20.02;;
57443;SDS011;43289;52.962;6.196;2024-01-30T03:27:11;31.73;;;19.65;;
57443;SDS011;43289;52.962;6.196;2024-01-30T03:29:37;26.75;;;19.05;;
57443;SDS011;43289;52.962;6.196;2024-01-30T03:32:03;26.42;;;18.48;;
57443;SDS011;43289;52.962;6.196;2024-01-30T03:34:29;25.55;;;18.20;;
57443;SDS011;43289;52.962;6.196;2024-01-30T03:36:55;24.77;;;18.20;;
57443;SDS011;43289;52.962;6.196;2024-01-30T03:39:21;25.05;;;19.05;;
57443;SDS011;43289;52.962;6.196;2024-01-30T03:41:47;23.98;;;17.92;;
57443;SDS011;43289;52.962;6.196;2024-01-30T03:44:13;23.50;;;17.85;;
57443;SDS011;43289;52.962;6.196;2024-01-30T03:46:39;26.55;;;18.17;;
57443;SDS011;43289;52.962;6.196;2024-01-30T03:49:05;24.90;;;18.73;;
57443;SDS011;43289;52.962;6.196;2024-01-30T03:51:31;23.10;;;16.27;;
57443;SDS011;43289;52.962;6.196;2024-01-30T03:53:59;26.52;;;16.92;;
57443;SDS011;43289;52.962;6.196;2024-01-30T03:56:25;23.30;;;16.95;;
57443;SDS011;43289;52.962;6.196;2024-01-30T03:58:51;25.40;;;17.08;;
57443;SDS011;43289;52.962;6.196;2024-01-30T04:01:17;22.20;;;17.30;;
57443;SDS011;43289;52.962;6.196;2024-01-30T04:03:44;24.38;;;16.98;;
57443;SDS011;43289;52.962;6.196;2024-01-30T04:06:10;20.65;;;16.75;;
57443;SDS011;43289;52.962;6.196;2024-01-30T04:08:36;21.13;;;16.77;;
57443;SDS011;43289;52.962;6.196;2024-01-30T04:11:05;25.00;;;16.13;;
57443;SDS011;43289;52.962;6.196;2024-01-30T04:13:32;21.35;;;15.23;;
57443;SDS011;43289;52.962;6.196;2024-01-30T04:15:59;23.27;;;16.67;;
57443;SDS011;43289;52.962;6.196;2024-01-30T04:18:26;21.15;;;15.40;;
57443;SDS011;43289;52.962;6.196;2024-01-30T04:20:52;21.23;;;15.82;;
57443;SDS011;43289;52.962;6.196;2024-01-30T04:23:18;21.23;;;15.70;;
57443;SDS011;43289;52.962;6.196;2024-01-30T04:25:44;21.92;;;15.18;;
57443;SDS011;43289;52.962;6.196;2024-01-30T04:28:10;19.70;;;15.00;;
57443;SDS011;43289;52.962;6.196;2024-01-30T04:30:39;21.92;;;15.38;;
57443;SDS011;43289;52.962;6.196;2024-01-30T04:33:07;22.25;;;16.65;;
57443;SDS011;43289;52.962;6.196;2024-01-30T04:35:33;22.33;;;15.40;;
57443;SDS011;43289;52.962;6.196;2024-01-30T04:37:59;23.20;;;16.20;;
57443;SDS011;43289;52.962;6.196;2024-01-30T04:40:25;18.60;;;14.32;;
57443;SDS011;43289;52.962;6.196;2024-01-30T04:42:51;20.38;;;15.38;;
57443;SDS011;43289;52.962;6.196;2024-01-30T04:45:17;21.65;;;14.63;;
57443;SDS011;43289;52.962;6.196;2024-01-30T04:47:43;19.42;;;13.68;;
57443;SDS011;43289;52.962;6.196;2024-01-30T04:50:09;20.83;;;16.15;;
57443;SDS011;43289;52.962;6.196;2024-01-30T04:52:35;19.77;;;14.80;;
57443;SDS011;43289;52.962;6.196;2024-01-30T04:55:02;19.35;;;14.32;;
57443;SDS011;43289;52.962;6.196;2024-01-30T04:57:28;20.48;;;14.27;;
57443;SDS011;43289;52.962;6.196;2024-01-30T04:59:54;18.75;;;13.80;;
57443;SDS011;43289;52.962;6.196;2024-01-30T05:02:20;18.45;;;15.10;;
57443;SDS011;43289;52.962;6.196;2024-01-30T05:04:46;19.33;;;13.98;;
57443;SDS011;43289;52.962;6.196;2024-01-30T05:07:12;21.45;;;15.23;;
57443;SDS011;43289;52.962;6.196;2024-01-30T05:09:38;19.77;;;13.88;;
57443;SDS011;43289;52.962;6.196;2024-01-30T05:12:04;17.65;;;14.38;;
57443;SDS011;43289;52.962;6.196;2024-01-30T05:14:31;17.15;;;13.05;;
57443;SDS011;43289;52.962;6.196;2024-01-30T05:16:57;20.42;;;14.75;;
57443;SDS011;43289;52.962;6.196;2024-01-30T05:19:23;24.05;;;14.02;;
57443;SDS011;43289;52.962;6.196;2024-01-30T05:21:50;15.55;;;12.15;;
57443;SDS011;43289;52.962;6.196;2024-01-30T05:24:16;19.67;;;14.10;;
57443;SDS011;43289;52.962;6.196;2024-01-30T05:26:43;18.33;;;13.50;;
57443;SDS011;43289;52.962;6.196;2024-01-30T05:29:09;17.80;;;13.65;;
57443;SDS011;43289;52.962;6.196;2024-01-30T05:31:35;19.60;;;14.50;;
57443;SDS011;43289;52.962;6.196;2024-01-30T05:34:01;18.10;;;13.25;;
57443;SDS011;43289;52.962;6.196;2024-01-30T05:36:27;18.15;;;13.73;;
57443;SDS011;43289;52.962;6.196;2024-01-30T05:38:53;19.30;;;13.70;;
57443;SDS011;43289;52.962;6.196;2024-01-30T05:41:19;18.33;;;13.55;;
57443;SDS011;43289;52.962;6.196;2024-01-30T05:43:48;18.88;;;13.10;;
57443;SDS011;43289;52.962;6.196;2024-01-30T05:46:14;15.52;;;12.13;;
57443;SDS011;43289;52.962;6.196;2024-01-30T05:48:41;21.23;;;13.52;;
57443;SDS011;43289;52.962;6.196;2024-01-30T05:51:08;17.63;;;12.82;;
57443;SDS011;43289;52.962;6.196;2024-01-30T05:53:34;17.38;;;13.02;;
57443;SDS011;43289;52.962;6.196;2024-01-30T05:56:03;18.10;;;12.55;;
57443;SDS011;43289;52.962;6.196;2024-01-30T05:58:29;18.63;;;13.80;;
57443;SDS011;43289;52.962;6.196;2024-01-30T06:00:58;18.70;;;13.25;;
57443;SDS011;43289;52.962;6.196;2024-01-30T06:03:24;18.67;;;13.10;;
57443;SDS011;43289;52.962;6.196;2024-01-30T06:05:50;17.35;;;12.57;;
57443;SDS011;43289;52.962;6.196;2024-01-30T06:08:17;18.38;;;12.40;;
57443;SDS011;43289;52.962;6.196;2024-01-30T06:10:44;15.88;;;11.73;;
57443;SDS011;43289;52.962;6.196;2024-01-30T06:13:10;15.98;;;11.65;;
57443;SDS011;43289;52.962;6.196;2024-01-30T06:15:36;19.80;;;13.15;;
57443;SDS011;43289;52.962;6.196;2024-01-30T06:18:02;18.38;;;12.48;;
57443;SDS011;43289;52.962;6.196;2024-01-30T06:20:28;15.05;;;11.63;;
57443;SDS011;43289;52.962;6.196;2024-01-30T06:22:54;16.90;;;11.93;;
57443;SDS011;43289;52.962;6.196;2024-01-30T06:25:20;16.33;;;11.55;;
57443;SDS011;43289;52.962;6.196;2024-01-30T06:27:46;16.70;;;12.57;;
57443;SDS011;43289;52.962;6.196;2024-01-30T06:30:12;14.65;;;11.73;;
57443;SDS011;43289;52.962;6.196;2024-01-30T06:32:39;15.93;;;12.10;;
57443;SDS011;43289;52.962;6.196;2024-01-30T06:35:05;16.00;;;11.55;;
57443;SDS011;43289;52.962;6.196;2024-01-30T06:37:31;16.30;;;10.70;;
57443;SDS011;43289;52.962;6.196;2024-01-30T06:39:57;18.00;;;12.35;;
57443;SDS011;43289;52.962;6.196;2024-01-30T06:42:23;17.52;;;10.70;;
57443;SDS011;43289;52.962;6.196;2024-01-30T06:44:49;15.63;;;11.05;;
57443;SDS011;43289;52.962;6.196;2024-01-30T06:47:15;15.85;;;11.88;;
57443;SDS011;43289;52.962;6.196;2024-01-30T06:49:41;15.13;;;11.60;;
57443;SDS011;43289;52.962;6.196;2024-01-30T06:52:09;14.77;;;11.57;;
57443;SDS011;43289;52.962;6.196;2024-01-30T06:54:35;16.67;;;11.50;;
57443;SDS011;43289;52.962;6.196;2024-01-30T06:57:01;19.02;;;12.57;;
57443;SDS011;43289;52.962;6.196;2024-01-30T06:59:28;18.20;;;11.30;;
57443;SDS011;43289;52.962;6.196;2024-01-30T07:01:54;18.52;;;11.65;;
57443;SDS011;43289;52.962;6.196;2024-01-30T07:04:20;15.18;;;10.85;;
57443;SDS011;43289;52.962;6.196;2024-01-30T07:06:46;15.55;;;11.18;;
57443;SDS011;43289;52.962;6.196;2024-01-30T07:09:12;14.43;;;10.98;;
57443;SDS011;43289;52.962;6.196;2024-01-30T07:11:38;13.18;;;10.27;;
57443;SDS011;43289;52.962;6.196;2024-01-30T07:14:04;14.32;;;10.48;;
57443;SDS011;43289;52.962;6.196;2024-01-30T07:16:30;15.85;;;12.45;;
57443;SDS011;43289;52.962;6.196;2024-01-30T07:18:57;18.08;;;12.05;;
57443;SDS011;43289;52.962;6.196;2024-01-30T07:21:23;16.40;;;11.73;;
57443;SDS011;43289;52.962;6.196;2024-01-30T07:23:53;17.25;;;12.07;;
57443;SDS011;43289;52.962;6.196;2024-01-30T07:26:20;15.40;;;11.57;;
57443;SDS011;43289;52.962;6.196;2024-01-30T07:28:46;15.95;;;11.50;;
57443;SDS011;43289;52.962;6.196;2024-01-30T07:31:12;19.10;;;11.38;;
57443;SDS011;43289;52.962;6.196;2024-01-30T07:33:38;18.02;;;11.40;;
57443;SDS011;43289;52.962;6.196;2024-01-30T07:36:04;18.25;;;11.35;;
57443;SDS011;43289;52.962;6.196;2024-01-30T07:38:33;16.25;;;11.93;;
57443;SDS011;43289;52.962;6.196;2024-01-30T07:40:59;16.60;;;12.25;;
57443;SDS011;43289;52.962;6.196;2024-01-30T07:43:25;18.60;;;11.38;;
57443;SDS011;43289;52.962;6.196;2024-01-30T07:45:52;16.08;;;11.50;;
57443;SDS011;43289;52.962;6.196;2024-01-30T07:48:18;15.73;;;11.65;;
57443;SDS011;43289;52.962;6.196;2024-01-30T07:50:44;16.95;;;11.70;;
57443;SDS011;43289;52.962;6.196;2024-01-30T07:53:10;18.20;;;12.00;;
57443;SDS011;43289;52.962;6.196;2024-01-30T07:55:36;15.63;;;10.93;;
57443;SDS011;43289;52.962;6.196;2024-01-30T07:58:03;18.50;;;12.27;;
57443;SDS011;43289;52.962;6.196;2024-01-30T08:00:29;15.60;;;11.05;;
57443;SDS011;43289;52.962;6.196;2024-01-30T08:02:56;14.88;;;11.07;;
57443;SDS011;43289;52.962;6.196;2024-01-30T08:05:22;14.88;;;11.38;;
57443;SDS011;43289;52.962;6.196;2024-01-30T08:07:49;13.68;;;10.80;;
57443;SDS011;43289;52.962;6.196;2024-01-30T08:10:15;13.65;;;10.48;;
57443;SDS011;43289;52.962;6.196;2024-01-30T08:12:43;14.32;;;10.70;;
57443;SDS011;43289;52.962;6.196;2024-01-30T08:15:10;14.65;;;10.75;;
57443;SDS011;43289;52.962;6.196;2024-01-30T08:17:37;15.35;;;11.23;;
57443;SDS011;43289;52.962;6.196;2024-01-30T08:20:03;13.05;;;10.18;;
57443;SDS011;43289;52.962;6.196;2024-01-30T08:22:29;18.00;;;11.27;;
57443;SDS011;43289;52.962;6.196;2024-01-30T08:24:55;16.48;;;11.52;;
57443;SDS011;43289;52.962;6.196;2024-01-30T08:27:21;18.30;;;11.45;;
57443;SDS011;43289;52.962;6.196;2024-01-30T08:29:47;15.85;;;11.02;;
57443;SDS011;43289;52.962;6.196;2024-01-30T08:32:15;18.13;;;10.70;;
57443;SDS011;43289;52.962;6.196;2024-01-30T08:34:41;16.52;;;11.27;;
57443;SDS011;43289;52.962;6.196;2024-01-30T08:37:07;15.50;;;11.02;;
57443;SDS011;43289;52.962;6.196;2024-01-30T08:39:33;16.95;;;11.13;;
57443;SDS011;43289;52.962;6.196;2024-01-30T08:41:59;15.52;;;11.35;;
57443;SDS011;43289;52.962;6.196;2024-01-30T08:44:25;15.73;;;11.63;;
57443;SDS011;43289;52.962;6.196;2024-01-30T08:46:52;19.02;;;11.48;;
57443;SDS011;43289;52.962;6.196;2024-01-30T08:49:19;20.33;;;11.50;;
57443;SDS011;43289;52.962;6.196;2024-01-30T08:51:45;15.68;;;11.10;;
57443;SDS011;43289;52.962;6.196;2024-01-30T08:54:12;16.50;;;11.43;;
57443;SDS011;43289;52.962;6.196;2024-01-30T08:56:38;15.40;;;11.25;;
57443;SDS011;43289;52.962;6.196;2024-01-30T08:59:04;15.50;;;12.00;;
57443;SDS011;43289;52.962;6.196;2024-01-30T09:01:30;14.85;;;10.73;;
57443;SDS011;43289;52.962;6.196;2024-01-30T09:03:56;17.48;;;11.43;;
57443;SDS011;43289;52.962;6.196;2024-01-30T09:06:22;15.43;;;10.75;;
57443;SDS011;43289;52.962;6.196;2024-01-30T09:08:51;17.50;;;11.57;;
57443;SDS011;43289;52.962;6.196;2024-01-30T09:11:17;18.50;;;11.07;;
57443;SDS011;43289;52.962;6.196;2024-01-30T09:13:44;18.42;;;11.73;;
57443;SDS011;43289;52.962;6.196;2024-01-30T09:16:10;16.48;;;11.43;;
57443;SDS011;43289;52.962;6.196;2024-01-30T09:18:36;18.67;;;12.30;;
57443;SDS011;43289;52.962;6.196;2024-01-30T09:21:02;16.38;;;10.93;;
57443;SDS011;43289;52.962;6.196;2024-01-30T09:23:28;14.88;;;10.88;;
57443;SDS011;43289;52.962;6.196;2024-01-30T09:25:54;15.30;;;10.73;;
57443;SDS011;43289;52.962;6.196;2024-01-30T09:28:20;16.88;;;11.25;;
57443;SDS011;43289;52.962;6.196;2024-01-30T09:30:46;16.67;;;11.35;;
57443;SDS011;43289;52.962;6.196;2024-01-30T09:33:12;17.90;;;10.88;;
57443;SDS011;43289;52.962;6.196;2024-01-30T09:35:38;15.55;;;10.65;;
57443;SDS011;43289;52.962;6.196;2024-01-30T09:38:04;14.48;;;9.98;;
57443;SDS011;43289;52.962;6.196;2024-01-30T09:40:30;19.77;;;11.55;;
57443;SDS011;43289;52.962;6.196;2024-01-30T09:42:56;14.45;;;10.65;;
57443;SDS011;43289;52.962;6.196;2024-01-30T09:45:27;18.90;;;10.98;;
57443;SDS011;43289;52.962;6.196;2024-01-30T09:47:53;16.95;;;10.48;;
57443;SDS011;43289;52.962;6.196;2024-01-30T09:50:19;14.55;;;11.18;;
57443;SDS011;43289;52.962;6.196;2024-01-30T09:52:48;15.68;;;10.45;;
57443;SDS011;43289;52.962;6.196;2024-01-30T09:55:15;15.23;;;11.15;;
57443;SDS011;43289;52.962;6.196;2024-01-30T09:57:42;18.75;;;10.85;;
57443;SDS011;43289;52.962;6.196;2024-01-30T10:00:08;17.67;;;10.88;;
57443;SDS011;43289;52.962;6.196;2024-01-30T10:02:34;13.93;;;10.18;;
57443;SDS011;43289;52.962;6.196;2024-01-30T10:05:01;19.90;;;10.60;;
57443;SDS011;43289;52.962;6.196;2024-01-30T10:07:28;14.50;;;9.88;;
57443;SDS011;43289;52.962;6.196;2024-01-30T10:09:55;15.48;;;9.63;;
57443;SDS011;43289;52.962;6.196;2024-01-30T10:12:21;15.95;;;9.93;;
57443;SDS011;43289;52.962;6.196;2024-01-30T10:14:48;16.95;;;10.30;;
57443;SDS011;43289;52.962;6.196;2024-01-30T10:17:14;15.43;;;10.93;;
57443;SDS011;43289;52.962;6.196;2024-01-30T10:19:40;15.93;;;10.75;;
57443;SDS011;43289;52.962;6.196;2024-01-30T10:22:06;16.67;;;10.77;;
57443;SDS011;43289;52.962;6.196;2024-01-30T10:24:33;18.73;;;12.68;;
57443;SDS011;43289;52.962;6.196;2024-01-30T10:26:59;18.73;;;11.32;;
57443;SDS011;43289;52.962;6.196;2024-01-30T10:29:26;14.20;;;11.18;;
57443;SDS011;43289;52.962;6.196;2024-01-30T10:31:59;16.77;;;11.63;;
57443;SDS011;43289;52.962;6.196;2024-01-30T10:34:25;17.13;;;11.13;;
57443;SDS011;43289;52.962;6.196;2024-01-30T10:36:55;17.83;;;11.18;;
57443;SDS011;43289;52.962;6.196;2024-01-30T10:39:24;13.30;;;10.68;;
57443;SDS011;43289;52.962;6.196;2024-01-30T10:41:50;18.15;;;12.27;;
57443;SDS011;43289;52.962;6.196;2024-01-30T10:44:18;17.13;;;11.43;;
57443;SDS011;43289;52.962;6.196;2024-01-30T10:46:45;14.48;;;10.57;;
57443;SDS011;43289;52.962;6.196;2024-01-30T10:49:15;15.15;;;10.02;;
57443;SDS011;43289;52.962;6.196;2024-01-30T10:51:42;17.08;;;10.73;;
57443;SDS011;43289;52.962;6.196;2024-01-30T10:54:09;16.63;;;11.55;;
57443;SDS011;43289;52.962;6.196;2024-01-30T10:56:36;16.05;;;11.23;;
57443;SDS011;43289;52.962;6.196;2024-01-30T10:59:03;13.40;;;9.40;;
57443;SDS011;43289;52.962;6.196;2024-01-30T11:01:29;19.30;;;12.45;;
57443;SDS011;43289;52.962;6.196;2024-01-30T11:03:56;18.73;;;10.40;;
57443;SDS011;43289;52.962;6.196;2024-01-30T11:06:22;16.35;;;10.30;;
57443;SDS011;43289;52.962;6.196;2024-01-30T11:09:01;15.73;;;9.60;;
57443;SDS011;43289;52.962;6.196;2024-01-30T11:11:29;15.57;;;9.10;;
57443;SDS011;43289;52.962;6.196;2024-01-30T11:13:55;15.57;;;7.53;;
57443;SDS011;43289;52.962;6.196;2024-01-30T11:16:21;19.08;;;7.65;;
57443;SDS011;43289;52.962;6.196;2024-01-30T11:18:50;18.75;;;7.25;;
57443;SDS011;43289;52.962;6.196;2024-01-30T11:21:16;13.43;;;5.95;;
57443;SDS011;43289;52.962;6.196;2024-01-30T11:23:42;15.25;;;6.10;;
57443;SDS011;43289;52.962;6.196;2024-01-30T11:26:12;16.38;;;6.43;;
57443;SDS011;43289;52.962;6.196;2024-01-30T11:28:38;18.23;;;6.78;;
57443;SDS011;43289;52.962;6.196;2024-01-30T11:31:07;8.00;;;3.70;;
57443;SDS011;43289;52.962;6.196;2024-01-30T11:33:33;11.90;;;4.65;;
57443;SDS011;43289;52.962;6.196;2024-01-30T11:35:59;8.95;;;3.97;;
57443;SDS011;43289;52.962;6.196;2024-01-30T11:38:26;13.15;;;4.13;;
57443;SDS011;43289;52.962;6.196;2024-01-30T11:40:53;15.38;;;4.07;;
57443;SDS011;43289;52.962;6.196;2024-01-30T11:43:21;11.23;;;4.10;;
57443;SDS011;43289;52.962;6.196;2024-01-30T11:45:47;10.55;;;3.13;;
57443;SDS011;43289;52.962;6.196;2024-01-30T11:48:13;5.60;;;2.58;;
57443;SDS011;43289;52.962;6.196;2024-01-30T11:50:39;8.93;;;3.42;;
57443;SDS011;43289;52.962;6.196;2024-01-30T11:53:06;4.80;;;2.22;;
57443;SDS011;43289;52.962;6.196;2024-01-30T11:55:32;4.90;;;2.50;;
57443;SDS011;43289;52.962;6.196;2024-01-30T11:58:01;8.38;;;2.60;;
57443;SDS011;43289;52.962;6.196;2024-01-30T12:00:29;7.28;;;2.70;;
57443;SDS011;43289;52.962;6.196;2024-01-30T12:02:58;6.55;;;2.50;;
57443;SDS011;43289;52.962;6.196;2024-01-30T12:05:25;6.85;;;2.60;;
57443;SDS011;43289;52.962;6.196;2024-01-30T12:07:52;3.85;;;1.75;;
57443;SDS011;43289;52.962;6.196;2024-01-30T12:10:18;5.95;;;1.70;;
57443;SDS011;43289;52.962;6.196;2024-01-30T12:12:48;4.50;;;1.98;;
57443;SDS011;43289;52.962;6.196;2024-01-30T12:15:15;5.35;;;1.20;;
57443;SDS011;43289;52.962;6.196;2024-01-30T12:17:41;2.83;;;0.80;;
57443;SDS011;43289;52.962;6.196;2024-01-30T12:22:37;3.30;;;1.00;;
57443;SDS011;43289;52.962;6.196;2024-01-30T12:25:24;3.75;;;1.08;;
57443;SDS011;43289;52.962;6.196;2024-01-30T12:27:50;5.28;;;1.15;;
57443;SDS011;43289;52.962;6.196;2024-01-30T12:30:16;3.05;;;1.10;;
57443;SDS011;43289;52.962;6.196;2024-01-30T12:32:46;4.28;;;1.00;;
57443;SDS011;43289;52.962;6.196;2024-01-30T12:35:16;2.15;;;1.23;;
57443;SDS011;43289;52.962;6.196;2024-01-30T12:37:43;6.13;;;1.58;;
57443;SDS011;43289;52.962;6.196;2024-01-30T12:40:09;4.90;;;1.95;;
57443;SDS011;43289;52.962;6.196;2024-01-30T12:42:36;2.60;;;1.20;;
57443;SDS011;43289;52.962;6.196;2024-01-30T12:45:03;5.03;;;1.98;;
57443;SDS011;43289;52.962;6.196;2024-01-30T12:47:29;5.13;;;2.15;;
57443;SDS011;43289;52.962;6.196;2024-01-30T12:49:55;3.72;;;1.80;;
57443;SDS011;43289;52.962;6.196;2024-01-30T12:52:21;7.70;;;3.05;;
57443;SDS011;43289;52.962;6.196;2024-01-30T12:54:48;3.42;;;0.95;;
57443;SDS011;43289;52.962;6.196;2024-01-30T12:57:14;6.13;;;2.28;;
57443;SDS011;43289;52.962;6.196;2024-01-30T12:59:41;2.38;;;1.13;;
57443;SDS011;43289;52.962;6.196;2024-01-30T13:02:07;2.58;;;1.20;;
57443;SDS011;43289;52.962;6.196;2024-01-30T13:04:34;1.40;;;0.98;;
57443;SDS011;43289;52.962;6.196;2024-01-30T13:07:00;4.45;;;0.98;;
57443;SDS011;43289;52.962;6.196;2024-01-30T13:09:26;1.95;;;0.77;;
57443;SDS011;43289;52.962;6.196;2024-01-30T13:11:52;1.02;;;0.63;;
57443;SDS011;43289;52.962;6.196;2024-01-30T13:14:19;2.67;;;0.82;;
57443;SDS011;43289;52.962;6.196;2024-01-30T13:16:45;1.83;;;0.90;;
57443;SDS011;43289;52.962;6.196;2024-01-30T13:19:11;3.17;;;1.10;;
57443;SDS011;43289;52.962;6.196;2024-01-30T13:21:37;2.20;;;1.10;;
57443;SDS011;43289;52.962;6.196;2024-01-30T13:24:03;5.28;;;1.58;;
57443;SDS011;43289;52.962;6.196;2024-01-30T13:26:31;4.05;;;1.33;;
57443;SDS011;43289;52.962;6.196;2024-01-30T13:28:57;2.40;;;1.27;;
57443;SDS011;43289;52.962;6.196;2024-01-30T13:31:23;4.78;;;1.30;;
57443;SDS011;43289;52.962;6.196;2024-01-30T13:33:50;3.25;;;1.38;;
57443;SDS011;43289;52.962;6.196;2024-01-30T13:36:16;3.78;;;1.40;;
57443;SDS011;43289;52.962;6.196;2024-01-30T13:38:42;4.57;;;1.23;;
57443;SDS011;43289;52.962;6.196;2024-01-30T13:41:08;4.22;;;1.38;;
57443;SDS011;43289;52.962;6.196;2024-01-30T13:43:34;5.55;;;1.90;;
57443;SDS011;43289;52.962;6.196;2024-01-30T13:46:00;5.65;;;2.13;;
57443;SDS011;43289;52.962;6.196;2024-01-30T13:48:26;6.53;;;2.67;;
57443;SDS011;43289;52.962;6.196;2024-01-30T13:50:53;4.13;;;1.92;;
57443;SDS011;43289;52.962;6.196;2024-01-30T13:53:19;6.32;;;3.25;;
57443;SDS011;43289;52.962;6.196;2024-01-30T13:55:46;6.28;;;2.67;;
57443;SDS011;43289;52.962;6.196;2024-01-30T13:58:12;6.38;;;2.88;;
57443;SDS011;43289;52.962;6.196;2024-01-30T14:00:38;8.43;;;3.55;;
57443;SDS011;43289;52.962;6.196;2024-01-30T14:03:04;6.78;;;2.85;;
57443;SDS011;43289;52.962;6.196;2024-01-30T14:05:30;7.22;;;3.47;;
57443;SDS011;43289;52.962;6.196;2024-01-30T14:07:57;7.40;;;2.33;;
57443;SDS011;43289;52.962;6.196;2024-01-30T14:10:23;7.65;;;2.53;;
57443;SDS011;43289;52.962;6.196;2024-01-30T14:12:49;3.92;;;2.25;;
57443;SDS011;43289;52.962;6.196;2024-01-30T14:15:15;6.85;;;2.58;;
57443;SDS011;43289;52.962;6.196;2024-01-30T14:17:44;6.97;;;2.92;;
57443;SDS011;43289;52.962;6.196;2024-01-30T14:20:13;6.75;;;3.78;;
57443;SDS011;43289;52.962;6.196;2024-01-30T14:22:39;5.95;;;3.10;;
57443;SDS011;43289;52.962;6.196;2024-01-30T14:25:05;9.88;;;3.20;;